sensor_id;sensor_type;location;lat;lon;timestamp;P1;durP1;ratioP1;P2;durP2;ratioP2
16179;SDS011;8196;49.428;10.906;2023-04-25T00:00:17;4.57;;;3.72;;
16179;SDS011;8196;49.428;10.906;2023-04-25T00:02:43;4.07;;;3.53;;
16179;SDS011;8196;49.428;10.906;2023-04-25T00:05:10;4.00;;;3.60;;
16179;SDS011;8196;49.428;10.906;2023-04-25T00:07:37;3.67;;;3.33;;
16179;SDS011;8196;49.428;10.906;2023-04-25T00:10:04;4.82;;;3.50;;
16179;SDS011;8196;49.428;10.906;2023-04-25T00:12:32;4.30;;;3.55;;
16179;SDS011;8196;49.428;10.906;2023-04-25T00:14:59;4.05;;;3.47;;
16179;SDS011;8196;49.428;10.906;2023-04-25T00:17:26;3.58;;;3.17;;
16179;SDS011;8196;49.428;10.906;2023-04-25T00:19:53;3.95;;;3.50;;
16179;SDS011;8196;49.428;10.906;2023-04-25T00:22:22;3.90;;;3.50;;
16179;SDS011;8196;49.428;10.906;2023-04-25T00:24:49;3.88;;;3.50;;
16179;SDS011;8196;49.428;10.906;2023-04-25T00:27:16;4.00;;;3.63;;
16179;SDS011;8196;49.428;10.906;2023-04-25T00:29:43;4.57;;;3.63;;
16179;SDS011;8196;49.428;10.906;2023-04-25T00:32:09;3.92;;;3.28;;
16179;SDS011;8196;49.428;10.906;2023-04-25T00:34:36;3.73;;;2.90;;
16179;SDS011;8196;49.428;10.906;2023-04-25T00:37:03;4.03;;;2.75;;
16179;SDS011;8196;49.428;10.906;2023-04-25T00:39:30;3.17;;;2.87;;
16179;SDS011;8196;49.428;10.906;2023-04-25T00:41:56;3.05;;;2.75;;
16179;SDS011;8196;49.428;10.906;2023-04-25T00:44:24;3.35;;;3.05;;
16179;SDS011;8196;49.428;10.906;2023-04-25T00:46:53;3.60;;;2.90;;
16179;SDS011;8196;49.428;10.906;2023-04-25T00:49:20;3.55;;;2.88;;
16179;SDS011;8196;49.428;10.906;2023-04-25T00:51:47;3.85;;;2.53;;
16179;SDS011;8196;49.428;10.906;2023-04-25T00:54:14;3.37;;;2.80;;
16179;SDS011;8196;49.428;10.906;2023-04-25T00:56:42;3.45;;;3.05;;
16179;SDS011;8196;49.428;10.906;2023-04-25T00:59:09;3.15;;;2.65;;
16179;SDS011;8196;49.428;10.906;2023-04-25T01:01:36;3.47;;;2.67;;
16179;SDS011;8196;49.428;10.906;2023-04-25T01:04:04;4.15;;;3.10;;
16179;SDS011;8196;49.428;10.906;2023-04-25T01:06:31;3.55;;;3.25;;
16179;SDS011;8196;49.428;10.906;2023-04-25T01:08:58;3.27;;;2.90;;
16179;SDS011;8196;49.428;10.906;2023-04-25T01:11:25;3.40;;;3.10;;
16179;SDS011;8196;49.428;10.906;2023-04-25T01:13:52;3.50;;;3.08;;
16179;SDS011;8196;49.428;10.906;2023-04-25T01:16:19;3.50;;;3.10;;
16179;SDS011;8196;49.428;10.906;2023-04-25T01:18:46;3.83;;;2.97;;
16179;SDS011;8196;49.428;10.906;2023-04-25T01:21:14;4.70;;;3.20;;
16179;SDS011;8196;49.428;10.906;2023-04-25T01:23:41;4.65;;;3.10;;
16179;SDS011;8196;49.428;10.906;2023-04-25T01:26:09;4.00;;;3.40;;
16179;SDS011;8196;49.428;10.906;2023-04-25T01:28:36;4.35;;;3.47;;
16179;SDS011;8196;49.428;10.906;2023-04-25T01:31:04;5.50;;;3.70;;
16179;SDS011;8196;49.428;10.906;2023-04-25T01:33:31;4.40;;;3.30;;
16179;SDS011;8196;49.428;10.906;2023-04-25T01:35:58;4.40;;;3.42;;
16179;SDS011;8196;49.428;10.906;2023-04-25T01:38:26;4.07;;;3.60;;
16179;SDS011;8196;49.428;10.906;2023-04-25T01:43:19;3.77;;;3.17;;
16179;SDS011;8196;49.428;10.906;2023-04-25T01:45:46;4.03;;;3.40;;
16179;SDS011;8196;49.428;10.906;2023-04-25T01:48:15;3.42;;;2.70;;
16179;SDS011;8196;49.428;10.906;2023-04-25T01:50:42;3.55;;;3.13;;
16179;SDS011;8196;49.428;10.906;2023-04-25T01:53:10;3.65;;;3.33;;
16179;SDS011;8196;49.428;10.906;2023-04-25T01:55:39;3.40;;;3.10;;
16179;SDS011;8196;49.428;10.906;2023-04-25T01:58:06;4.60;;;3.40;;
16179;SDS011;8196;49.428;10.906;2023-04-25T02:00:35;3.33;;;3.00;;
16179;SDS011;8196;49.428;10.906;2023-04-25T02:03:05;4.35;;;3.47;;
16179;SDS011;8196;49.428;10.906;2023-04-25T02:05:35;3.90;;;3.50;;
16179;SDS011;8196;49.428;10.906;2023-04-25T02:08:04;4.35;;;3.50;;
16179;SDS011;8196;49.428;10.906;2023-04-25T02:10:34;5.03;;;3.50;;
16179;SDS011;8196;49.428;10.906;2023-04-25T02:13:01;4.88;;;3.80;;
16179;SDS011;8196;49.428;10.906;2023-04-25T02:15:29;4.38;;;3.97;;
16179;SDS011;8196;49.428;10.906;2023-04-25T02:17:56;4.97;;;3.70;;
16179;SDS011;8196;49.428;10.906;2023-04-25T02:20:24;3.92;;;3.53;;
16179;SDS011;8196;49.428;10.906;2023-04-25T02:22:51;4.55;;;3.72;;
16179;SDS011;8196;49.428;10.906;2023-04-25T02:25:19;3.90;;;3.47;;
16179;SDS011;8196;49.428;10.906;2023-04-25T02:27:46;4.43;;;3.53;;
16179;SDS011;8196;49.428;10.906;2023-04-25T02:30:14;4.97;;;3.88;;
16179;SDS011;8196;49.428;10.906;2023-04-25T02:32:47;4.47;;;3.70;;
16179;SDS011;8196;49.428;10.906;2023-04-25T02:35:23;4.72;;;4.10;;
16179;SDS011;8196;49.428;10.906;2023-04-25T02:37:50;4.75;;;3.78;;
16179;SDS011;8196;49.428;10.906;2023-04-25T02:40:16;4.25;;;3.47;;
16179;SDS011;8196;49.428;10.906;2023-04-25T02:42:43;4.03;;;3.63;;
16179;SDS011;8196;49.428;10.906;2023-04-25T02:45:11;4.50;;;3.53;;
16179;SDS011;8196;49.428;10.906;2023-04-25T02:47:38;4.70;;;4.10;;
16179;SDS011;8196;49.428;10.906;2023-04-25T02:50:05;4.63;;;4.03;;
16179;SDS011;8196;49.428;10.906;2023-04-25T02:52:32;5.27;;;4.00;;
16179;SDS011;8196;49.428;10.906;2023-04-25T02:54:59;5.43;;;3.63;;
16179;SDS011;8196;49.428;10.906;2023-04-25T02:57:26;4.90;;;4.00;;
16179;SDS011;8196;49.428;10.906;2023-04-25T02:59:52;4.53;;;4.00;;
16179;SDS011;8196;49.428;10.906;2023-04-25T03:02:19;4.72;;;4.18;;
16179;SDS011;8196;49.428;10.906;2023-04-25T03:04:46;6.25;;;4.30;;
16179;SDS011;8196;49.428;10.906;2023-04-25T03:07:14;5.03;;;4.17;;
16179;SDS011;8196;49.428;10.906;2023-04-25T03:09:40;4.88;;;3.92;;
16179;SDS011;8196;49.428;10.906;2023-04-25T03:12:07;4.70;;;3.77;;
16179;SDS011;8196;49.428;10.906;2023-04-25T03:14:34;5.07;;;4.00;;
16179;SDS011;8196;49.428;10.906;2023-04-25T03:17:01;5.43;;;3.92;;
16179;SDS011;8196;49.428;10.906;2023-04-25T03:19:28;4.85;;;4.10;;
16179;SDS011;8196;49.428;10.906;2023-04-25T03:21:54;5.20;;;4.25;;
16179;SDS011;8196;49.428;10.906;2023-04-25T03:24:21;4.50;;;4.10;;
16179;SDS011;8196;49.428;10.906;2023-04-25T03:26:48;6.30;;;4.43;;
16179;SDS011;8196;49.428;10.906;2023-04-25T03:29:14;5.88;;;4.65;;
16179;SDS011;8196;49.428;10.906;2023-04-25T03:31:41;5.82;;;5.20;;
16179;SDS011;8196;49.428;10.906;2023-04-25T03:34:08;6.13;;;5.22;;
16179;SDS011;8196;49.428;10.906;2023-04-25T03:36:35;6.73;;;5.20;;
16179;SDS011;8196;49.428;10.906;2023-04-25T03:39:01;6.65;;;4.45;;
16179;SDS011;8196;49.428;10.906;2023-04-25T03:41:28;6.32;;;5.13;;
16179;SDS011;8196;49.428;10.906;2023-04-25T03:43:55;6.07;;;5.47;;
16179;SDS011;8196;49.428;10.906;2023-04-25T03:46:22;6.10;;;5.50;;
16179;SDS011;8196;49.428;10.906;2023-04-25T03:48:49;6.07;;;5.47;;
16179;SDS011;8196;49.428;10.906;2023-04-25T03:51:16;6.45;;;5.43;;
16179;SDS011;8196;49.428;10.906;2023-04-25T03:53:42;6.90;;;5.57;;
16179;SDS011;8196;49.428;10.906;2023-04-25T03:56:09;7.95;;;6.10;;
16179;SDS011;8196;49.428;10.906;2023-04-25T03:58:36;7.55;;;6.15;;
16179;SDS011;8196;49.428;10.906;2023-04-25T04:01:02;7.80;;;6.82;;
16179;SDS011;8196;49.428;10.906;2023-04-25T04:03:34;9.25;;;6.65;;
16179;SDS011;8196;49.428;10.906;2023-04-25T04:06:03;7.50;;;6.50;;
16179;SDS011;8196;49.428;10.906;2023-04-25T04:08:32;8.30;;;6.50;;
16179;SDS011;8196;49.428;10.906;2023-04-25T04:10:59;7.85;;;6.00;;
16179;SDS011;8196;49.428;10.906;2023-04-25T04:13:26;8.20;;;6.30;;
16179;SDS011;8196;49.428;10.906;2023-04-25T04:15:53;7.40;;;6.60;;
16179;SDS011;8196;49.428;10.906;2023-04-25T04:18:21;6.78;;;5.97;;
16179;SDS011;8196;49.428;10.906;2023-04-25T04:20:48;7.10;;;5.83;;
16179;SDS011;8196;49.428;10.906;2023-04-25T04:23:15;7.25;;;5.97;;
16179;SDS011;8196;49.428;10.906;2023-04-25T04:25:42;7.22;;;5.97;;
16179;SDS011;8196;49.428;10.906;2023-04-25T04:28:09;7.28;;;5.60;;
16179;SDS011;8196;49.428;10.906;2023-04-25T04:30:37;6.53;;;5.72;;
16179;SDS011;8196;49.428;10.906;2023-04-25T04:33:05;6.88;;;5.47;;
16179;SDS011;8196;49.428;10.906;2023-04-25T04:35:33;6.70;;;5.90;;
16179;SDS011;8196;49.428;10.906;2023-04-25T04:38:00;6.38;;;5.53;;
16179;SDS011;8196;49.428;10.906;2023-04-25T04:40:27;6.97;;;5.95;;
16179;SDS011;8196;49.428;10.906;2023-04-25T04:42:53;6.97;;;5.80;;
16179;SDS011;8196;49.428;10.906;2023-04-25T04:45:22;7.18;;;6.03;;
16179;SDS011;8196;49.428;10.906;2023-04-25T04:47:49;8.25;;;6.22;;
16179;SDS011;8196;49.428;10.906;2023-04-25T04:50:16;7.00;;;6.15;;
16179;SDS011;8196;49.428;10.906;2023-04-25T04:52:44;8.23;;;6.68;;
16179;SDS011;8196;49.428;10.906;2023-04-25T04:55:11;8.05;;;6.25;;
16179;SDS011;8196;49.428;10.906;2023-04-25T04:57:37;8.35;;;6.57;;
16179;SDS011;8196;49.428;10.906;2023-04-25T05:00:05;7.15;;;6.25;;
16179;SDS011;8196;49.428;10.906;2023-04-25T05:02:37;8.52;;;6.53;;
16179;SDS011;8196;49.428;10.906;2023-04-25T05:05:05;6.87;;;5.80;;
16179;SDS011;8196;49.428;10.906;2023-04-25T05:07:32;7.13;;;6.30;;
16179;SDS011;8196;49.428;10.906;2023-04-25T05:09:58;7.28;;;6.03;;
16179;SDS011;8196;49.428;10.906;2023-04-25T05:12:25;7.45;;;5.97;;
16179;SDS011;8196;49.428;10.906;2023-04-25T05:14:52;7.10;;;5.97;;
16179;SDS011;8196;49.428;10.906;2023-04-25T05:17:18;8.15;;;6.28;;
16179;SDS011;8196;49.428;10.906;2023-04-25T05:19:45;7.33;;;6.10;;
16179;SDS011;8196;49.428;10.906;2023-04-25T05:22:12;6.75;;;6.05;;
16179;SDS011;8196;49.428;10.906;2023-04-25T05:24:39;7.33;;;6.17;;
16179;SDS011;8196;49.428;10.906;2023-04-25T05:27:05;7.18;;;6.20;;
16179;SDS011;8196;49.428;10.906;2023-04-25T05:29:32;7.57;;;6.78;;
16179;SDS011;8196;49.428;10.906;2023-04-25T05:31:59;9.77;;;7.78;;
16179;SDS011;8196;49.428;10.906;2023-04-25T05:34:25;10.05;;;8.38;;
16179;SDS011;8196;49.428;10.906;2023-04-25T05:36:52;8.65;;;7.32;;
16179;SDS011;8196;49.428;10.906;2023-04-25T05:39:19;8.32;;;6.88;;
16179;SDS011;8196;49.428;10.906;2023-04-25T05:41:46;7.63;;;6.22;;
16179;SDS011;8196;49.428;10.906;2023-04-25T05:44:12;7.57;;;6.43;;
16179;SDS011;8196;49.428;10.906;2023-04-25T05:46:39;6.30;;;5.70;;
16179;SDS011;8196;49.428;10.906;2023-04-25T05:49:06;8.18;;;5.88;;
16179;SDS011;8196;49.428;10.906;2023-04-25T05:51:33;6.75;;;5.65;;
16179;SDS011;8196;49.428;10.906;2023-04-25T05:53:59;6.57;;;5.88;;
16179;SDS011;8196;49.428;10.906;2023-04-25T05:56:26;6.27;;;5.37;;
16179;SDS011;8196;49.428;10.906;2023-04-25T05:58:53;7.45;;;5.60;;
16179;SDS011;8196;49.428;10.906;2023-04-25T06:01:19;6.15;;;5.43;;
16179;SDS011;8196;49.428;10.906;2023-04-25T06:03:46;6.97;;;5.60;;
16179;SDS011;8196;49.428;10.906;2023-04-25T06:06:14;6.75;;;5.82;;
16179;SDS011;8196;49.428;10.906;2023-04-25T06:08:40;6.05;;;5.07;;
16179;SDS011;8196;49.428;10.906;2023-04-25T06:11:07;5.72;;;4.90;;
16179;SDS011;8196;49.428;10.906;2023-04-25T06:13:34;6.18;;;4.80;;
16179;SDS011;8196;49.428;10.906;2023-04-25T06:16:01;5.50;;;4.93;;
16179;SDS011;8196;49.428;10.906;2023-04-25T06:18:27;5.60;;;4.78;;
16179;SDS011;8196;49.428;10.906;2023-04-25T06:20:54;5.68;;;4.97;;
16179;SDS011;8196;49.428;10.906;2023-04-25T06:23:21;5.53;;;4.90;;
16179;SDS011;8196;49.428;10.906;2023-04-25T06:25:48;5.85;;;5.25;;
16179;SDS011;8196;49.428;10.906;2023-04-25T06:28:14;6.43;;;5.65;;
16179;SDS011;8196;49.428;10.906;2023-04-25T06:30:41;5.93;;;5.10;;
16179;SDS011;8196;49.428;10.906;2023-04-25T06:33:08;5.97;;;5.38;;
16179;SDS011;8196;49.428;10.906;2023-04-25T06:35:34;7.87;;;5.60;;
16179;SDS011;8196;49.428;10.906;2023-04-25T06:38:01;6.70;;;5.53;;
16179;SDS011;8196;49.428;10.906;2023-04-25T06:40:28;6.20;;;5.60;;
16179;SDS011;8196;49.428;10.906;2023-04-25T06:42:54;6.53;;;5.82;;
16179;SDS011;8196;49.428;10.906;2023-04-25T06:45:21;7.50;;;6.20;;
16179;SDS011;8196;49.428;10.906;2023-04-25T06:47:48;7.25;;;5.90;;
16179;SDS011;8196;49.428;10.906;2023-04-25T06:50:15;6.28;;;5.63;;
16179;SDS011;8196;49.428;10.906;2023-04-25T06:52:42;8.65;;;5.85;;
16179;SDS011;8196;49.428;10.906;2023-04-25T06:55:08;7.53;;;6.00;;
16179;SDS011;8196;49.428;10.906;2023-04-25T06:57:35;7.55;;;5.93;;
16179;SDS011;8196;49.428;10.906;2023-04-25T07:00:02;7.50;;;5.90;;
16179;SDS011;8196;49.428;10.906;2023-04-25T07:02:31;6.22;;;5.20;;
16179;SDS011;8196;49.428;10.906;2023-04-25T07:04:58;7.60;;;5.30;;
16179;SDS011;8196;49.428;10.906;2023-04-25T07:07:26;5.93;;;4.88;;
16179;SDS011;8196;49.428;10.906;2023-04-25T07:09:53;4.95;;;4.45;;
16179;SDS011;8196;49.428;10.906;2023-04-25T07:12:20;6.03;;;4.93;;
16179;SDS011;8196;49.428;10.906;2023-04-25T07:14:47;5.10;;;4.47;;
16179;SDS011;8196;49.428;10.906;2023-04-25T07:17:14;5.90;;;4.70;;
16179;SDS011;8196;49.428;10.906;2023-04-25T07:19:41;6.30;;;4.50;;
16179;SDS011;8196;49.428;10.906;2023-04-25T07:22:08;5.80;;;4.28;;
16179;SDS011;8196;49.428;10.906;2023-04-25T07:24:34;4.90;;;4.28;;
16179;SDS011;8196;49.428;10.906;2023-04-25T07:27:01;4.95;;;3.90;;
16179;SDS011;8196;49.428;10.906;2023-04-25T07:29:28;5.00;;;4.10;;
16179;SDS011;8196;49.428;10.906;2023-04-25T07:31:56;4.30;;;3.22;;
16179;SDS011;8196;49.428;10.906;2023-04-25T07:34:23;4.10;;;3.30;;
16179;SDS011;8196;49.428;10.906;2023-04-25T07:36:49;4.25;;;3.20;;
16179;SDS011;8196;49.428;10.906;2023-04-25T07:39:16;4.17;;;3.50;;
16179;SDS011;8196;49.428;10.906;2023-04-25T07:41:43;4.25;;;3.53;;
16179;SDS011;8196;49.428;10.906;2023-04-25T07:44:10;4.10;;;3.40;;
16179;SDS011;8196;49.428;10.906;2023-04-25T07:46:36;4.15;;;3.75;;
16179;SDS011;8196;49.428;10.906;2023-04-25T07:49:03;4.97;;;3.47;;
16179;SDS011;8196;49.428;10.906;2023-04-25T07:51:30;3.88;;;3.40;;
16179;SDS011;8196;49.428;10.906;2023-04-25T07:53:57;4.68;;;3.85;;
16179;SDS011;8196;49.428;10.906;2023-04-25T07:56:25;4.32;;;3.72;;
16179;SDS011;8196;49.428;10.906;2023-04-25T07:58:52;4.15;;;3.63;;
16179;SDS011;8196;49.428;10.906;2023-04-25T08:01:19;4.68;;;3.80;;
16179;SDS011;8196;49.428;10.906;2023-04-25T08:03:47;4.20;;;3.63;;
16179;SDS011;8196;49.428;10.906;2023-04-25T08:06:14;3.42;;;3.13;;
16179;SDS011;8196;49.428;10.906;2023-04-25T08:08:41;4.30;;;3.20;;
16179;SDS011;8196;49.428;10.906;2023-04-25T08:11:08;3.92;;;3.08;;
16179;SDS011;8196;49.428;10.906;2023-04-25T08:13:35;4.53;;;3.50;;
16179;SDS011;8196;49.428;10.906;2023-04-25T08:16:02;4.60;;;3.10;;
16179;SDS011;8196;49.428;10.906;2023-04-25T08:18:29;3.90;;;3.45;;
16179;SDS011;8196;49.428;10.906;2023-04-25T08:20:55;3.53;;;2.90;;
16179;SDS011;8196;49.428;10.906;2023-04-25T08:23:22;4.53;;;2.90;;
16179;SDS011;8196;49.428;10.906;2023-04-25T08:25:49;3.42;;;2.92;;
16179;SDS011;8196;49.428;10.906;2023-04-25T08:28:15;4.07;;;3.20;;
16179;SDS011;8196;49.428;10.906;2023-04-25T08:30:42;3.75;;;3.08;;
16179;SDS011;8196;49.428;10.906;2023-04-25T08:33:09;4.78;;;3.63;;
16179;SDS011;8196;49.428;10.906;2023-04-25T08:35:37;3.88;;;3.22;;
16179;SDS011;8196;49.428;10.906;2023-04-25T08:38:04;3.13;;;2.83;;
16179;SDS011;8196;49.428;10.906;2023-04-25T08:40:31;3.78;;;2.90;;
16179;SDS011;8196;49.428;10.906;2023-04-25T08:43:03;4.45;;;3.22;;
16179;SDS011;8196;49.428;10.906;2023-04-25T08:45:38;3.50;;;3.10;;
16179;SDS011;8196;49.428;10.906;2023-04-25T08:48:07;4.18;;;3.47;;
16179;SDS011;8196;49.428;10.906;2023-04-25T08:50:53;3.70;;;3.13;;
16179;SDS011;8196;49.428;10.906;2023-04-25T08:53:23;4.23;;;3.37;;
16179;SDS011;8196;49.428;10.906;2023-04-25T08:55:54;5.78;;;4.00;;
16179;SDS011;8196;49.428;10.906;2023-04-25T08:58:22;4.97;;;3.60;;
16179;SDS011;8196;49.428;10.906;2023-04-25T09:00:50;4.38;;;3.90;;
16179;SDS011;8196;49.428;10.906;2023-04-25T09:03:18;4.20;;;3.80;;
16179;SDS011;8196;49.428;10.906;2023-04-25T09:05:45;4.88;;;3.88;;
16179;SDS011;8196;49.428;10.906;2023-04-25T09:08:12;4.63;;;4.10;;
16179;SDS011;8196;49.428;10.906;2023-04-25T09:10:39;6.53;;;4.05;;
16179;SDS011;8196;49.428;10.906;2023-04-25T09:13:08;4.80;;;4.30;;
16179;SDS011;8196;49.428;10.906;2023-04-25T09:15:56;4.43;;;3.97;;
16179;SDS011;8196;49.428;10.906;2023-04-25T09:18:24;4.13;;;3.60;;
16179;SDS011;8196;49.428;10.906;2023-04-25T09:20:56;5.15;;;3.75;;
16179;SDS011;8196;49.428;10.906;2023-04-25T09:23:41;4.05;;;3.25;;
16179;SDS011;8196;49.428;10.906;2023-04-25T09:26:16;4.43;;;3.50;;
16179;SDS011;8196;49.428;10.906;2023-04-25T09:28:44;3.60;;;3.25;;
16179;SDS011;8196;49.428;10.906;2023-04-25T09:31:12;3.72;;;3.33;;
16179;SDS011;8196;49.428;10.906;2023-04-25T09:33:47;4.47;;;3.25;;
16179;SDS011;8196;49.428;10.906;2023-04-25T09:36:14;3.88;;;3.20;;
16179;SDS011;8196;49.428;10.906;2023-04-25T09:38:41;4.35;;;3.70;;
16179;SDS011;8196;49.428;10.906;2023-04-25T09:41:10;4.90;;;3.38;;
16179;SDS011;8196;49.428;10.906;2023-04-25T09:43:38;4.25;;;3.75;;
16179;SDS011;8196;49.428;10.906;2023-04-25T09:46:07;4.27;;;3.57;;
16179;SDS011;8196;49.428;10.906;2023-04-25T09:48:35;4.63;;;3.97;;
16179;SDS011;8196;49.428;10.906;2023-04-25T09:53:29;4.82;;;4.32;;
16179;SDS011;8196;49.428;10.906;2023-04-25T09:55:59;4.68;;;4.10;;
16179;SDS011;8196;49.428;10.906;2023-04-25T09:58:29;4.43;;;3.42;;
16179;SDS011;8196;49.428;10.906;2023-04-25T10:00:59;3.83;;;3.43;;
16179;SDS011;8196;49.428;10.906;2023-04-25T10:03:30;3.50;;;3.00;;
16179;SDS011;8196;49.428;10.906;2023-04-25T10:05:59;4.60;;;2.80;;
16179;SDS011;8196;49.428;10.906;2023-04-25T10:08:28;3.78;;;3.00;;
16179;SDS011;8196;49.428;10.906;2023-04-25T10:11:00;3.30;;;3.00;;
16179;SDS011;8196;49.428;10.906;2023-04-25T10:13:29;4.20;;;3.13;;
16179;SDS011;8196;49.428;10.906;2023-04-25T10:15:58;4.03;;;2.90;;
16179;SDS011;8196;49.428;10.906;2023-04-25T10:18:27;4.85;;;2.78;;
16179;SDS011;8196;49.428;10.906;2023-04-25T10:20:55;3.40;;;3.07;;
16179;SDS011;8196;49.428;10.906;2023-04-25T10:23:23;4.28;;;2.78;;
16179;SDS011;8196;49.428;10.906;2023-04-25T10:25:51;3.30;;;3.00;;
16179;SDS011;8196;49.428;10.906;2023-04-25T10:28:20;4.25;;;3.08;;
16179;SDS011;8196;49.428;10.906;2023-04-25T10:31:03;3.38;;;3.08;;
16179;SDS011;8196;49.428;10.906;2023-04-25T10:36:08;3.45;;;2.70;;
16179;SDS011;8196;49.428;10.906;2023-04-25T10:38:36;3.30;;;2.55;;
16179;SDS011;8196;49.428;10.906;2023-04-25T10:41:05;3.78;;;2.28;;
16179;SDS011;8196;49.428;10.906;2023-04-25T10:46:17;4.17;;;2.47;;
16179;SDS011;8196;49.428;10.906;2023-04-25T10:48:54;4.28;;;2.35;;
16179;SDS011;8196;49.428;10.906;2023-04-25T10:51:23;3.72;;;2.47;;
16179;SDS011;8196;49.428;10.906;2023-04-25T10:53:56;3.17;;;2.40;;
16179;SDS011;8196;49.428;10.906;2023-04-25T10:56:26;3.35;;;2.08;;
16179;SDS011;8196;49.428;10.906;2023-04-25T10:59:05;2.55;;;2.25;;
16179;SDS011;8196;49.428;10.906;2023-04-25T11:04:06;2.08;;;1.88;;
16179;SDS011;8196;49.428;10.906;2023-04-25T11:06:58;4.40;;;2.22;;
16179;SDS011;8196;49.428;10.906;2023-04-25T11:09:33;4.30;;;2.35;;
16179;SDS011;8196;49.428;10.906;2023-04-25T11:12:01;3.10;;;2.30;;
16179;SDS011;8196;49.428;10.906;2023-04-25T11:14:28;2.92;;;2.17;;
16179;SDS011;8196;49.428;10.906;2023-04-25T11:16:55;3.15;;;1.90;;
16179;SDS011;8196;49.428;10.906;2023-04-25T11:19:26;4.00;;;2.00;;
16179;SDS011;8196;49.428;10.906;2023-04-25T11:21:54;2.83;;;1.83;;
16179;SDS011;8196;49.428;10.906;2023-04-25T11:24:26;2.55;;;1.90;;
16179;SDS011;8196;49.428;10.906;2023-04-25T11:26:54;3.28;;;1.90;;
16179;SDS011;8196;49.428;10.906;2023-04-25T11:29:22;2.17;;;1.50;;
16179;SDS011;8196;49.428;10.906;2023-04-25T11:31:50;3.00;;;1.42;;
16179;SDS011;8196;49.428;10.906;2023-04-25T11:34:18;1.83;;;1.40;;
16179;SDS011;8196;49.428;10.906;2023-04-25T11:36:45;1.30;;;1.20;;
16179;SDS011;8196;49.428;10.906;2023-04-25T11:39:12;1.63;;;1.23;;
16179;SDS011;8196;49.428;10.906;2023-04-25T11:41:39;1.65;;;1.30;;
16179;SDS011;8196;49.428;10.906;2023-04-25T11:44:11;2.58;;;1.25;;
16179;SDS011;8196;49.428;10.906;2023-04-25T11:46:38;1.55;;;1.40;;
16179;SDS011;8196;49.428;10.906;2023-04-25T11:49:04;1.77;;;1.25;;
16179;SDS011;8196;49.428;10.906;2023-04-25T11:51:37;1.70;;;1.20;;
16179;SDS011;8196;49.428;10.906;2023-04-25T11:54:05;2.35;;;1.40;;
16179;SDS011;8196;49.428;10.906;2023-04-25T11:56:32;1.13;;;1.02;;
16179;SDS011;8196;49.428;10.906;2023-04-25T11:59:00;1.40;;;1.10;;
16179;SDS011;8196;49.428;10.906;2023-04-25T12:01:29;1.60;;;1.35;;
16179;SDS011;8196;49.428;10.906;2023-04-25T12:04:18;2.13;;;1.23;;
16179;SDS011;8196;49.428;10.906;2023-04-25T12:06:50;2.03;;;1.37;;
16179;SDS011;8196;49.428;10.906;2023-04-25T12:09:20;2.03;;;1.30;;
16179;SDS011;8196;49.428;10.906;2023-04-25T12:11:54;1.95;;;1.30;;
16179;SDS011;8196;49.428;10.906;2023-04-25T12:14:24;1.80;;;1.40;;
16179;SDS011;8196;49.428;10.906;2023-04-25T12:16:55;1.88;;;1.30;;
16179;SDS011;8196;49.428;10.906;2023-04-25T12:19:24;1.35;;;1.25;;
16179;SDS011;8196;49.428;10.906;2023-04-25T12:21:52;2.93;;;1.30;;
16179;SDS011;8196;49.428;10.906;2023-04-25T12:24:25;1.33;;;1.17;;
16179;SDS011;8196;49.428;10.906;2023-04-25T12:29:30;2.28;;;1.60;;
16179;SDS011;8196;49.428;10.906;2023-04-25T12:32:14;1.30;;;1.20;;
16179;SDS011;8196;49.428;10.906;2023-04-25T12:34:41;2.22;;;1.45;;
16179;SDS011;8196;49.428;10.906;2023-04-25T12:37:08;1.70;;;1.40;;
16179;SDS011;8196;49.428;10.906;2023-04-25T12:39:35;1.65;;;1.50;;
16179;SDS011;8196;49.428;10.906;2023-04-25T12:42:02;1.75;;;1.42;;
16179;SDS011;8196;49.428;10.906;2023-04-25T12:44:33;1.73;;;1.38;;
16179;SDS011;8196;49.428;10.906;2023-04-25T12:47:00;1.67;;;1.52;;
16179;SDS011;8196;49.428;10.906;2023-04-25T12:49:27;2.03;;;1.63;;
16179;SDS011;8196;49.428;10.906;2023-04-25T12:51:53;2.72;;;1.77;;
16179;SDS011;8196;49.428;10.906;2023-04-25T12:54:20;3.20;;;2.20;;
16179;SDS011;8196;49.428;10.906;2023-04-25T12:56:47;2.85;;;1.52;;
16179;SDS011;8196;49.428;10.906;2023-04-25T12:59:14;2.83;;;1.65;;
16179;SDS011;8196;49.428;10.906;2023-04-25T13:01:41;2.33;;;1.70;;
16179;SDS011;8196;49.428;10.906;2023-04-25T13:04:09;1.70;;;1.60;;
16179;SDS011;8196;49.428;10.906;2023-04-25T13:06:36;2.70;;;1.70;;
16179;SDS011;8196;49.428;10.906;2023-04-25T13:09:02;2.13;;;1.50;;
16179;SDS011;8196;49.428;10.906;2023-04-25T13:11:29;2.55;;;1.60;;
16179;SDS011;8196;49.428;10.906;2023-04-25T13:13:57;2.22;;;1.40;;
16179;SDS011;8196;49.428;10.906;2023-04-25T13:16:23;3.58;;;1.77;;
16179;SDS011;8196;49.428;10.906;2023-04-25T13:18:50;2.40;;;1.63;;
16179;SDS011;8196;49.428;10.906;2023-04-25T13:21:17;2.22;;;1.60;;
16179;SDS011;8196;49.428;10.906;2023-04-25T13:23:44;2.20;;;1.70;;
16179;SDS011;8196;49.428;10.906;2023-04-25T13:26:12;2.80;;;1.90;;
16179;SDS011;8196;49.428;10.906;2023-04-25T13:28:39;3.40;;;1.83;;
16179;SDS011;8196;49.428;10.906;2023-04-25T13:31:09;2.70;;;1.90;;
16179;SDS011;8196;49.428;10.906;2023-04-25T13:33:36;1.70;;;1.60;;
16179;SDS011;8196;49.428;10.906;2023-04-25T13:36:03;2.47;;;1.70;;
16179;SDS011;8196;49.428;10.906;2023-04-25T13:38:30;3.00;;;1.80;;
16179;SDS011;8196;49.428;10.906;2023-04-25T13:40:56;4.15;;;1.90;;
16179;SDS011;8196;49.428;10.906;2023-04-25T13:43:23;2.43;;;1.83;;
16179;SDS011;8196;49.428;10.906;2023-04-25T13:45:50;2.25;;;1.73;;
16179;SDS011;8196;49.428;10.906;2023-04-25T13:48:18;3.17;;;1.60;;
16179;SDS011;8196;49.428;10.906;2023-04-25T13:50:46;2.70;;;2.00;;
16179;SDS011;8196;49.428;10.906;2023-04-25T13:53:12;2.47;;;1.90;;
16179;SDS011;8196;49.428;10.906;2023-04-25T13:55:39;2.20;;;1.88;;
16179;SDS011;8196;49.428;10.906;2023-04-25T13:58:06;2.50;;;2.00;;
16179;SDS011;8196;49.428;10.906;2023-04-25T14:00:36;3.33;;;1.95;;
16179;SDS011;8196;49.428;10.906;2023-04-25T14:03:05;2.85;;;2.10;;
16179;SDS011;8196;49.428;10.906;2023-04-25T14:05:34;2.33;;;1.70;;
16179;SDS011;8196;49.428;10.906;2023-04-25T14:08:06;3.38;;;2.05;;
16179;SDS011;8196;49.428;10.906;2023-04-25T14:10:34;3.60;;;2.03;;
16179;SDS011;8196;49.428;10.906;2023-04-25T14:13:02;2.58;;;2.00;;
16179;SDS011;8196;49.428;10.906;2023-04-25T14:15:31;2.35;;;2.08;;
16179;SDS011;8196;49.428;10.906;2023-04-25T14:17:58;2.17;;;1.98;;
16179;SDS011;8196;49.428;10.906;2023-04-25T14:20:26;3.03;;;2.08;;
16179;SDS011;8196;49.428;10.906;2023-04-25T14:22:53;4.70;;;2.63;;
16179;SDS011;8196;49.428;10.906;2023-04-25T14:25:22;3.40;;;2.30;;
16179;SDS011;8196;49.428;10.906;2023-04-25T14:27:49;4.10;;;2.22;;
16179;SDS011;8196;49.428;10.906;2023-04-25T14:30:16;2.53;;;2.30;;
16179;SDS011;8196;49.428;10.906;2023-04-25T14:32:44;3.08;;;2.30;;
16179;SDS011;8196;49.428;10.906;2023-04-25T14:35:11;3.03;;;2.17;;
16179;SDS011;8196;49.428;10.906;2023-04-25T14:37:38;3.33;;;2.13;;
16179;SDS011;8196;49.428;10.906;2023-04-25T14:40:06;3.30;;;2.40;;
16179;SDS011;8196;49.428;10.906;2023-04-25T14:42:36;3.25;;;2.38;;
16179;SDS011;8196;49.428;10.906;2023-04-25T14:45:05;3.42;;;2.47;;
16179;SDS011;8196;49.428;10.906;2023-04-25T14:47:34;2.73;;;2.27;;
16179;SDS011;8196;49.428;10.906;2023-04-25T14:50:02;3.58;;;2.47;;
16179;SDS011;8196;49.428;10.906;2023-04-25T14:52:28;3.30;;;2.20;;
16179;SDS011;8196;49.428;10.906;2023-04-25T14:54:55;2.67;;;2.15;;
16179;SDS011;8196;49.428;10.906;2023-04-25T14:57:22;4.15;;;2.50;;
16179;SDS011;8196;49.428;10.906;2023-04-25T14:59:49;3.45;;;2.65;;
16179;SDS011;8196;49.428;10.906;2023-04-25T15:02:15;3.25;;;2.20;;
16179;SDS011;8196;49.428;10.906;2023-04-25T15:04:42;3.47;;;2.10;;
16179;SDS011;8196;49.428;10.906;2023-04-25T15:07:09;3.00;;;2.33;;